sensor_id;sensor_type;location;lat;lon;timestamp;P1;durP1;ratioP1;P2;durP2;ratioP2
27644;SDS011;15054;57.152;-2.118;2022-09-17T00:01:22;3.17;;;0.50;;
27644;SDS011;15054;57.152;-2.118;2022-09-17T00:03:51;2.17;;;0.40;;
27644;SDS011;15054;57.152;-2.118;2022-09-17T00:06:19;2.35;;;0.43;;
27644;SDS011;15054;57.152;-2.118;2022-09-17T00:08:47;4.18;;;0.65;;
27644;SDS011;15054;57.152;-2.118;2022-09-17T00:11:16;4.57;;;1.05;;
27644;SDS011;15054;57.152;-2.118;2022-09-17T00:13:49;3.35;;;0.40;;
27644;SDS011;15054;57.152;-2.118;2022-09-17T00:16:22;4.80;;;0.35;;
27644;SDS011;15054;57.152;-2.118;2022-09-17T00:18:51;2.40;;;0.50;;
27644;SDS011;15054;57.152;-2.118;2022-09-17T00:21:19;3.83;;;0.60;;
27644;SDS011;15054;57.152;-2.118;2022-09-17T00:23:54;5.10;;;0.40;;
27644;SDS011;15054;57.152;-2.118;2022-09-17T00:26:26;2.00;;;0.38;;
27644;SDS011;15054;57.152;-2.118;2022-09-17T00:28:55;1.88;;;0.30;;
27644;SDS011;15054;57.152;-2.118;2022-09-17T00:31:23;5.18;;;0.43;;
27644;SDS011;15054;57.152;-2.118;2022-09-17T00:33:51;1.88;;;0.60;;
27644;SDS011;15054;57.152;-2.118;2022-09-17T00:36:19;3.55;;;0.60;;
27644;SDS011;15054;57.152;-2.118;2022-09-17T00:38:47;6.53;;;1.02;;
27644;SDS011;15054;57.152;-2.118;2022-09-17T00:41:16;2.00;;;0.40;;
27644;SDS011;15054;57.152;-2.118;2022-09-17T00:43:44;4.68;;;0.45;;
27644;SDS011;15054;57.152;-2.118;2022-09-17T00:46:20;1.63;;;0.40;;
27644;SDS011;15054;57.152;-2.118;2022-09-17T00:52:00;1.92;;;0.50;;
27644;SDS011;15054;57.152;-2.118;2022-09-17T00:54:35;3.72;;;0.43;;
27644;SDS011;15054;57.152;-2.118;2022-09-17T00:57:04;1.95;;;0.40;;
27644;SDS011;15054;57.152;-2.118;2022-09-17T00:59:32;4.75;;;0.65;;
27644;SDS011;15054;57.152;-2.118;2022-09-17T01:01:59;3.28;;;0.57;;
27644;SDS011;15054;57.152;-2.118;2022-09-17T01:04:26;4.47;;;0.50;;
27644;SDS011;15054;57.152;-2.118;2022-09-17T01:10:17;3.33;;;0.50;;
27644;SDS011;15054;57.152;-2.118;2022-09-17T01:12:56;3.10;;;0.30;;
27644;SDS011;15054;57.152;-2.118;2022-09-17T01:18:31;2.80;;;0.30;;
27644;SDS011;15054;57.152;-2.118;2022-09-17T01:29:11;1.38;;;0.30;;
27644;SDS011;15054;57.152;-2.118;2022-09-17T01:34:31;1.55;;;0.40;;
27644;SDS011;15054;57.152;-2.118;2022-09-17T01:37:36;2.08;;;0.40;;
27644;SDS011;15054;57.152;-2.118;2022-09-17T01:40:21;1.67;;;0.32;;
27644;SDS011;15054;57.152;-2.118;2022-09-17T01:42:57;1.00;;;0.30;;
27644;SDS011;15054;57.152;-2.118;2022-09-17T01:48:42;1.23;;;0.30;;
27644;SDS011;15054;57.152;-2.118;2022-09-17T01:51:15;1.75;;;0.35;;
27644;SDS011;15054;57.152;-2.118;2022-09-17T01:56:17;2.80;;;0.40;;
27644;SDS011;15054;57.152;-2.118;2022-09-17T01:58:51;2.72;;;0.30;;
27644;SDS011;15054;57.152;-2.118;2022-09-17T02:01:25;1.73;;;0.52;;
27644;SDS011;15054;57.152;-2.118;2022-09-17T02:04:01;2.83;;;0.52;;
27644;SDS011;15054;57.152;-2.118;2022-09-17T02:06:36;3.53;;;0.50;;
27644;SDS011;15054;57.152;-2.118;2022-09-17T02:09:10;2.63;;;0.70;;
27644;SDS011;15054;57.152;-2.118;2022-09-17T02:14:12;2.58;;;0.50;;
27644;SDS011;15054;57.152;-2.118;2022-09-17T02:16:48;1.40;;;0.25;;
27644;SDS011;15054;57.152;-2.118;2022-09-17T02:19:23;1.83;;;0.38;;
27644;SDS011;15054;57.152;-2.118;2022-09-17T02:24:55;1.70;;;0.40;;
27644;SDS011;15054;57.152;-2.118;2022-09-17T02:30:13;2.60;;;0.40;;
27644;SDS011;15054;57.152;-2.118;2022-09-17T02:32:40;1.70;;;0.73;;
27644;SDS011;15054;57.152;-2.118;2022-09-17T02:35:09;2.13;;;0.40;;
27644;SDS011;15054;57.152;-2.118;2022-09-17T02:37:40;2.80;;;0.43;;
27644;SDS011;15054;57.152;-2.118;2022-09-17T02:40:09;3.13;;;0.50;;
27644;SDS011;15054;57.152;-2.118;2022-09-17T02:59:09;2.35;;;0.55;;
27644;SDS011;15054;57.152;-2.118;2022-09-17T03:02:04;1.92;;;0.57;;
27644;SDS011;15054;57.152;-2.118;2022-09-17T03:04:43;2.20;;;0.57;;
27644;SDS011;15054;57.152;-2.118;2022-09-17T03:07:12;1.10;;;0.45;;
27644;SDS011;15054;57.152;-2.118;2022-09-17T03:09:40;0.93;;;0.40;;
27644;SDS011;15054;57.152;-2.118;2022-09-17T03:12:09;6.38;;;0.65;;
27644;SDS011;15054;57.152;-2.118;2022-09-17T03:14:37;3.53;;;0.55;;
27644;SDS011;15054;57.152;-2.118;2022-09-17T03:17:04;1.27;;;0.40;;
27644;SDS011;15054;57.152;-2.118;2022-09-17T03:19:31;1.85;;;0.57;;
27644;SDS011;15054;57.152;-2.118;2022-09-17T03:21:58;3.15;;;0.45;;
27644;SDS011;15054;57.152;-2.118;2022-09-17T03:24:25;1.38;;;0.50;;
27644;SDS011;15054;57.152;-2.118;2022-09-17T03:26:52;1.67;;;0.38;;
27644;SDS011;15054;57.152;-2.118;2022-09-17T03:29:19;3.40;;;0.70;;
27644;SDS011;15054;57.152;-2.118;2022-09-17T03:31:46;2.03;;;0.90;;
27644;SDS011;15054;57.152;-2.118;2022-09-17T03:34:14;3.25;;;0.70;;
27644;SDS011;15054;57.152;-2.118;2022-09-17T03:36:41;5.68;;;0.85;;
27644;SDS011;15054;57.152;-2.118;2022-09-17T03:39:08;2.55;;;0.70;;
27644;SDS011;15054;57.152;-2.118;2022-09-17T03:41:35;0.57;;;0.43;;
27644;SDS011;15054;57.152;-2.118;2022-09-17T03:44:02;3.03;;;0.50;;
27644;SDS011;15054;57.152;-2.118;2022-09-17T03:46:29;2.65;;;0.50;;
27644;SDS011;15054;57.152;-2.118;2022-09-17T03:48:57;3.38;;;0.73;;
27644;SDS011;15054;57.152;-2.118;2022-09-17T03:51:24;5.60;;;0.65;;
27644;SDS011;15054;57.152;-2.118;2022-09-17T03:53:51;3.97;;;0.93;;
27644;SDS011;15054;57.152;-2.118;2022-09-17T03:56:18;4.18;;;0.75;;
27644;SDS011;15054;57.152;-2.118;2022-09-17T03:58:45;2.72;;;0.60;;
27644;SDS011;15054;57.152;-2.118;2022-09-17T04:01:12;1.73;;;0.70;;
27644;SDS011;15054;57.152;-2.118;2022-09-17T04:03:40;1.50;;;0.65;;
27644;SDS011;15054;57.152;-2.118;2022-09-17T04:06:07;2.03;;;1.10;;
27644;SDS011;15054;57.152;-2.118;2022-09-17T04:08:34;3.08;;;0.85;;
27644;SDS011;15054;57.152;-2.118;2022-09-17T04:11:02;1.35;;;0.77;;
27644;SDS011;15054;57.152;-2.118;2022-09-17T04:13:29;2.13;;;0.65;;
27644;SDS011;15054;57.152;-2.118;2022-09-17T04:15:56;2.17;;;0.75;;
27644;SDS011;15054;57.152;-2.118;2022-09-17T04:18:23;3.55;;;0.63;;
27644;SDS011;15054;57.152;-2.118;2022-09-17T04:20:50;4.18;;;0.70;;
27644;SDS011;15054;57.152;-2.118;2022-09-17T04:23:18;2.10;;;0.88;;
27644;SDS011;15054;57.152;-2.118;2022-09-17T04:25:46;3.05;;;0.95;;
27644;SDS011;15054;57.152;-2.118;2022-09-17T04:28:13;1.48;;;0.63;;
27644;SDS011;15054;57.152;-2.118;2022-09-17T04:30:40;3.47;;;0.80;;
27644;SDS011;15054;57.152;-2.118;2022-09-17T04:33:11;3.90;;;0.80;;
27644;SDS011;15054;57.152;-2.118;2022-09-17T04:35:38;2.45;;;0.68;;
27644;SDS011;15054;57.152;-2.118;2022-09-17T04:38:05;1.58;;;0.55;;
27644;SDS011;15054;57.152;-2.118;2022-09-17T04:40:32;3.15;;;0.70;;
27644;SDS011;15054;57.152;-2.118;2022-09-17T04:43:00;0.85;;;0.68;;
27644;SDS011;15054;57.152;-2.118;2022-09-17T04:45:29;2.33;;;0.52;;
27644;SDS011;15054;57.152;-2.118;2022-09-17T04:47:59;3.33;;;0.50;;
27644;SDS011;15054;57.152;-2.118;2022-09-17T04:50:27;0.52;;;0.52;;
27644;SDS011;15054;57.152;-2.118;2022-09-17T04:52:54;1.48;;;0.60;;
27644;SDS011;15054;57.152;-2.118;2022-09-17T04:55:21;0.80;;;0.80;;
27644;SDS011;15054;57.152;-2.118;2022-09-17T04:57:49;2.38;;;0.60;;
27644;SDS011;15054;57.152;-2.118;2022-09-17T05:00:18;2.60;;;0.75;;
27644;SDS011;15054;57.152;-2.118;2022-09-17T05:02:47;3.10;;;0.73;;
27644;SDS011;15054;57.152;-2.118;2022-09-17T05:05:16;5.50;;;0.82;;
27644;SDS011;15054;57.152;-2.118;2022-09-17T05:07:46;2.35;;;0.70;;
27644;SDS011;15054;57.152;-2.118;2022-09-17T05:10:14;4.38;;;0.80;;
27644;SDS011;15054;57.152;-2.118;2022-09-17T05:12:46;1.42;;;0.93;;
27644;SDS011;15054;57.152;-2.118;2022-09-17T05:15:17;0.70;;;0.63;;
27644;SDS011;15054;57.152;-2.118;2022-09-17T05:17:45;0.98;;;0.50;;
27644;SDS011;15054;57.152;-2.118;2022-09-17T05:20:12;2.58;;;0.57;;
27644;SDS011;15054;57.152;-2.118;2022-09-17T05:22:43;3.83;;;0.95;;
27644;SDS011;15054;57.152;-2.118;2022-09-17T05:25:15;1.20;;;0.70;;
27644;SDS011;15054;57.152;-2.118;2022-09-17T05:27:44;1.05;;;0.63;;
27644;SDS011;15054;57.152;-2.118;2022-09-17T05:30:11;2.20;;;0.80;;
27644;SDS011;15054;57.152;-2.118;2022-09-17T05:32:38;0.98;;;0.70;;
27644;SDS011;15054;57.152;-2.118;2022-09-17T05:35:06;3.13;;;0.60;;
27644;SDS011;15054;57.152;-2.118;2022-09-17T05:37:34;4.28;;;1.13;;
27644;SDS011;15054;57.152;-2.118;2022-09-17T05:40:03;0.70;;;0.70;;
27644;SDS011;15054;57.152;-2.118;2022-09-17T05:42:32;2.53;;;1.05;;
27644;SDS011;15054;57.152;-2.118;2022-09-17T05:44:59;1.88;;;0.70;;
27644;SDS011;15054;57.152;-2.118;2022-09-17T05:47:27;0.60;;;0.60;;
27644;SDS011;15054;57.152;-2.118;2022-09-17T05:49:54;0.70;;;0.70;;
27644;SDS011;15054;57.152;-2.118;2022-09-17T05:52:21;2.40;;;0.70;;
27644;SDS011;15054;57.152;-2.118;2022-09-17T05:54:48;2.55;;;0.75;;
27644;SDS011;15054;57.152;-2.118;2022-09-17T05:57:15;0.88;;;0.70;;
27644;SDS011;15054;57.152;-2.118;2022-09-17T05:59:42;0.60;;;0.60;;
27644;SDS011;15054;57.152;-2.118;2022-09-17T06:02:11;1.25;;;0.47;;
27644;SDS011;15054;57.152;-2.118;2022-09-17T06:04:39;0.85;;;0.82;;
27644;SDS011;15054;57.152;-2.118;2022-09-17T06:07:06;1.20;;;0.75;;
27644;SDS011;15054;57.152;-2.118;2022-09-17T06:09:35;2.00;;;0.80;;
27644;SDS011;15054;57.152;-2.118;2022-09-17T06:12:06;1.85;;;0.77;;
27644;SDS011;15054;57.152;-2.118;2022-09-17T06:14:33;1.58;;;0.60;;
27644;SDS011;15054;57.152;-2.118;2022-09-17T06:17:00;1.55;;;0.80;;
27644;SDS011;15054;57.152;-2.118;2022-09-17T06:19:27;1.98;;;0.70;;
27644;SDS011;15054;57.152;-2.118;2022-09-17T06:21:54;0.82;;;0.60;;
27644;SDS011;15054;57.152;-2.118;2022-09-17T06:24:22;1.95;;;0.57;;
27644;SDS011;15054;57.152;-2.118;2022-09-17T06:26:50;0.52;;;0.52;;
27644;SDS011;15054;57.152;-2.118;2022-09-17T06:29:17;1.98;;;0.65;;
27644;SDS011;15054;57.152;-2.118;2022-09-17T06:31:46;2.17;;;0.70;;
27644;SDS011;15054;57.152;-2.118;2022-09-17T06:34:14;2.47;;;0.80;;
27644;SDS011;15054;57.152;-2.118;2022-09-17T06:36:42;0.50;;;0.50;;
27644;SDS011;15054;57.152;-2.118;2022-09-17T06:39:09;1.90;;;0.80;;
27644;SDS011;15054;57.152;-2.118;2022-09-17T06:41:37;1.60;;;0.50;;
27644;SDS011;15054;57.152;-2.118;2022-09-17T06:44:04;1.30;;;0.57;;
27644;SDS011;15054;57.152;-2.118;2022-09-17T06:46:31;1.35;;;0.70;;
27644;SDS011;15054;57.152;-2.118;2022-09-17T06:48:58;0.40;;;0.40;;
27644;SDS011;15054;57.152;-2.118;2022-09-17T06:51:26;1.00;;;0.75;;
27644;SDS011;15054;57.152;-2.118;2022-09-17T06:53:53;1.48;;;1.13;;
27644;SDS011;15054;57.152;-2.118;2022-09-17T06:56:20;0.55;;;0.50;;
27644;SDS011;15054;57.152;-2.118;2022-09-17T06:58:47;1.00;;;0.70;;
27644;SDS011;15054;57.152;-2.118;2022-09-17T07:01:14;0.95;;;0.68;;
27644;SDS011;15054;57.152;-2.118;2022-09-17T07:03:41;1.67;;;0.70;;
27644;SDS011;15054;57.152;-2.118;2022-09-17T07:06:09;1.10;;;0.50;;
27644;SDS011;15054;57.152;-2.118;2022-09-17T07:08:38;0.70;;;0.68;;
27644;SDS011;15054;57.152;-2.118;2022-09-17T07:11:05;0.90;;;0.68;;
27644;SDS011;15054;57.152;-2.118;2022-09-17T07:13:34;3.05;;;0.80;;
27644;SDS011;15054;57.152;-2.118;2022-09-17T07:16:01;1.48;;;0.45;;
27644;SDS011;15054;57.152;-2.118;2022-09-17T07:18:30;3.08;;;1.00;;
27644;SDS011;15054;57.152;-2.118;2022-09-17T07:20:59;1.02;;;0.63;;
27644;SDS011;15054;57.152;-2.118;2022-09-17T07:23:28;0.47;;;0.47;;
27644;SDS011;15054;57.152;-2.118;2022-09-17T07:26:01;1.80;;;0.75;;
27644;SDS011;15054;57.152;-2.118;2022-09-17T07:28:30;2.17;;;1.17;;
27644;SDS011;15054;57.152;-2.118;2022-09-17T07:30:57;3.05;;;0.60;;
27644;SDS011;15054;57.152;-2.118;2022-09-17T07:33:28;0.75;;;0.57;;
27644;SDS011;15054;57.152;-2.118;2022-09-17T07:35:56;1.40;;;0.60;;
27644;SDS011;15054;57.152;-2.118;2022-09-17T07:38:25;1.40;;;0.40;;
27644;SDS011;15054;57.152;-2.118;2022-09-17T07:43:21;5.07;;;0.70;;
27644;SDS011;15054;57.152;-2.118;2022-09-17T07:45:48;1.65;;;0.60;;
27644;SDS011;15054;57.152;-2.118;2022-09-17T07:48:15;2.08;;;0.50;;
27644;SDS011;15054;57.152;-2.118;2022-09-17T07:50:43;4.03;;;0.50;;
27644;SDS011;15054;57.152;-2.118;2022-09-17T07:53:10;0.77;;;0.52;;
27644;SDS011;15054;57.152;-2.118;2022-09-17T07:55:37;1.63;;;0.60;;
27644;SDS011;15054;57.152;-2.118;2022-09-17T07:58:04;0.70;;;0.70;;
27644;SDS011;15054;57.152;-2.118;2022-09-17T08:00:32;1.00;;;0.50;;
27644;SDS011;15054;57.152;-2.118;2022-09-17T08:02:59;1.20;;;0.68;;
27644;SDS011;15054;57.152;-2.118;2022-09-17T08:05:26;1.23;;;0.60;;
27644;SDS011;15054;57.152;-2.118;2022-09-17T08:07:54;2.42;;;0.60;;
27644;SDS011;15054;57.152;-2.118;2022-09-17T08:10:21;1.70;;;0.80;;
27644;SDS011;15054;57.152;-2.118;2022-09-17T08:12:49;1.77;;;0.52;;
27644;SDS011;15054;57.152;-2.118;2022-09-17T08:15:19;5.15;;;0.82;;
27644;SDS011;15054;57.152;-2.118;2022-09-17T08:17:47;0.93;;;0.40;;
27644;SDS011;15054;57.152;-2.118;2022-09-17T08:20:15;0.50;;;0.50;;
27644;SDS011;15054;57.152;-2.118;2022-09-17T08:22:43;1.08;;;0.52;;
27644;SDS011;15054;57.152;-2.118;2022-09-17T08:25:15;2.08;;;0.60;;
27644;SDS011;15054;57.152;-2.118;2022-09-17T08:27:42;2.63;;;0.65;;
27644;SDS011;15054;57.152;-2.118;2022-09-17T08:30:10;2.78;;;0.63;;
27644;SDS011;15054;57.152;-2.118;2022-09-17T08:32:37;0.57;;;0.50;;
27644;SDS011;15054;57.152;-2.118;2022-09-17T08:35:04;1.15;;;0.47;;
27644;SDS011;15054;57.152;-2.118;2022-09-17T08:37:32;1.88;;;0.63;;
27644;SDS011;15054;57.152;-2.118;2022-09-17T08:40:00;0.43;;;0.40;;
27644;SDS011;15054;57.152;-2.118;2022-09-17T08:42:32;0.98;;;0.47;;
27644;SDS011;15054;57.152;-2.118;2022-09-17T08:45:09;1.35;;;0.50;;
27644;SDS011;15054;57.152;-2.118;2022-09-17T08:47:40;0.88;;;0.45;;
27644;SDS011;15054;57.152;-2.118;2022-09-17T08:50:13;0.98;;;0.47;;
27644;SDS011;15054;57.152;-2.118;2022-09-17T08:55:50;2.42;;;0.40;;
27644;SDS011;15054;57.152;-2.118;2022-09-17T09:01:20;2.40;;;0.30;;
27644;SDS011;15054;57.152;-2.118;2022-09-17T09:06:21;0.25;;;0.25;;
27644;SDS011;15054;57.152;-2.118;2022-09-17T09:08:59;1.33;;;0.30;;
27644;SDS011;15054;57.152;-2.118;2022-09-17T09:11:30;2.45;;;0.40;;
27644;SDS011;15054;57.152;-2.118;2022-09-17T09:16:50;1.85;;;0.70;;
27644;SDS011;15054;57.152;-2.118;2022-09-17T09:19:33;2.03;;;0.60;;
27644;SDS011;15054;57.152;-2.118;2022-09-17T09:24:49;0.77;;;0.40;;
27644;SDS011;15054;57.152;-2.118;2022-09-17T09:27:28;0.38;;;0.30;;
27644;SDS011;15054;57.152;-2.118;2022-09-17T09:30:03;1.98;;;0.35;;
27644;SDS011;15054;57.152;-2.118;2022-09-17T09:32:39;1.88;;;0.50;;
27644;SDS011;15054;57.152;-2.118;2022-09-17T09:35:29;1.45;;;0.35;;
27644;SDS011;15054;57.152;-2.118;2022-09-17T09:38:00;0.38;;;0.32;;
27644;SDS011;15054;57.152;-2.118;2022-09-17T09:40:35;1.20;;;0.52;;
27644;SDS011;15054;57.152;-2.118;2022-09-17T09:52:07;3.92;;;0.60;;
27644;SDS011;15054;57.152;-2.118;2022-09-17T09:54:53;1.23;;;0.55;;
27644;SDS011;15054;57.152;-2.118;2022-09-17T10:00:27;2.50;;;0.60;;
27644;SDS011;15054;57.152;-2.118;2022-09-17T10:05:53;0.65;;;0.32;;
27644;SDS011;15054;57.152;-2.118;2022-09-17T10:08:24;0.95;;;0.30;;
27644;SDS011;15054;57.152;-2.118;2022-09-17T10:10:56;1.30;;;0.50;;
27644;SDS011;15054;57.152;-2.118;2022-09-17T10:13:27;2.63;;;0.30;;
27644;SDS011;15054;57.152;-2.118;2022-09-17T10:21:37;0.68;;;0.30;;
27644;SDS011;15054;57.152;-2.118;2022-09-17T10:26:40;0.45;;;0.40;;
27644;SDS011;15054;57.152;-2.118;2022-09-17T10:29:11;0.32;;;0.20;;
27644;SDS011;15054;57.152;-2.118;2022-09-17T10:31:55;0.20;;;0.20;;
27644;SDS011;15054;57.152;-2.118;2022-09-17T10:36:52;1.48;;;0.30;;
27644;SDS011;15054;57.152;-2.118;2022-09-17T10:44:37;0.10;;;0.10;;
27644;SDS011;15054;57.152;-2.118;2022-09-17T10:47:21;0.85;;;0.32;;
27644;SDS011;15054;57.152;-2.118;2022-09-17T10:49:55;1.42;;;0.40;;
27644;SDS011;15054;57.152;-2.118;2022-09-17T10:57:56;0.30;;;0.30;;
27644;SDS011;15054;57.152;-2.118;2022-09-17T11:03:45;0.35;;;0.20;;
27644;SDS011;15054;57.152;-2.118;2022-09-17T11:22:40;1.38;;;0.32;;
27644;SDS011;15054;57.152;-2.118;2022-09-17T11:37:39;1.27;;;0.20;;
27644;SDS011;15054;57.152;-2.118;2022-09-17T11:40:16;0.52;;;0.40;;
27644;SDS011;15054;57.152;-2.118;2022-09-17T11:42:56;0.68;;;0.22;;
27644;SDS011;15054;57.152;-2.118;2022-09-17T11:48:15;0.32;;;0.30;;
27644;SDS011;15054;57.152;-2.118;2022-09-17T11:50:47;1.17;;;0.47;;
27644;SDS011;15054;57.152;-2.118;2022-09-17T11:53:33;0.20;;;0.20;;
27644;SDS011;15054;57.152;-2.118;2022-09-17T12:01:40;1.10;;;0.35;;
27644;SDS011;15054;57.152;-2.118;2022-09-17T12:04:00;1.42;;;0.35;;
27644;SDS011;15054;57.152;-2.118;2022-09-17T12:06:51;0.20;;;0.20;;
27644;SDS011;15054;57.152;-2.118;2022-09-17T12:09:26;0.50;;;0.30;;
27644;SDS011;15054;57.152;-2.118;2022-09-17T12:12:08;0.32;;;0.28;;
27644;SDS011;15054;57.152;-2.118;2022-09-17T12:15:11;0.57;;;0.20;;
27644;SDS011;15054;57.152;-2.118;2022-09-17T12:17:54;2.38;;;0.30;;
27644;SDS011;15054;57.152;-2.118;2022-09-17T12:20:58;0.28;;;0.17;;
27644;SDS011;15054;57.152;-2.118;2022-09-17T12:26:07;0.65;;;0.20;;
27644;SDS011;15054;57.152;-2.118;2022-09-17T12:29:02;2.05;;;0.30;;
27644;SDS011;15054;57.152;-2.118;2022-09-17T12:37:52;0.65;;;0.15;;
27644;SDS011;15054;57.152;-2.118;2022-09-17T12:43:27;0.52;;;0.20;;
27644;SDS011;15054;57.152;-2.118;2022-09-17T12:59:03;2.40;;;0.20;;
27644;SDS011;15054;57.152;-2.118;2022-09-17T13:01:33;0.32;;;0.20;;
27644;SDS011;15054;57.152;-2.118;2022-09-17T13:09:45;0.22;;;0.20;;
27644;SDS011;15054;57.152;-2.118;2022-09-17T13:12:39;0.30;;;0.13;;
27644;SDS011;15054;57.152;-2.118;2022-09-17T13:15:22;0.17;;;0.10;;
27644;SDS011;15054;57.152;-2.118;2022-09-17T13:18:11;0.38;;;0.20;;
27644;SDS011;15054;57.152;-2.118;2022-09-17T13:23:47;0.63;;;0.25;;
27644;SDS011;15054;57.152;-2.118;2022-09-17T13:26:17;1.75;;;0.30;;
27644;SDS011;15054;57.152;-2.118;2022-09-17T13:28:49;0.40;;;0.20;;
27644;SDS011;15054;57.152;-2.118;2022-09-17T13:31:21;1.15;;;0.30;;
27644;SDS011;15054;57.152;-2.118;2022-09-17T13:34:01;1.75;;;0.30;;
27644;SDS011;15054;57.152;-2.118;2022-09-17T13:42:12;1.30;;;0.32;;
27644;SDS011;15054;57.152;-2.118;2022-09-17T13:44:50;0.40;;;0.30;;
27644;SDS011;15054;57.152;-2.118;2022-09-17T13:47:20;0.10;;;0.10;;
27644;SDS011;15054;57.152;-2.118;2022-09-17T13:50:08;0.40;;;0.22;;
27644;SDS011;15054;57.152;-2.118;2022-09-17T13:52:50;0.52;;;0.30;;
27644;SDS011;15054;57.152;-2.118;2022-09-17T14:01:00;0.82;;;0.30;;
27644;SDS011;15054;57.152;-2.118;2022-09-17T14:19:29;1.97;;;0.30;;
27644;SDS011;15054;57.152;-2.118;2022-09-17T14:22:24;1.10;;;0.30;;
27644;SDS011;15054;57.152;-2.118;2022-09-17T14:24:52;1.33;;;0.25;;
27644;SDS011;15054;57.152;-2.118;2022-09-17T14:30:36;0.63;;;0.20;;
27644;SDS011;15054;57.152;-2.118;2022-09-17T14:33:13;1.30;;;0.25;;
27644;SDS011;15054;57.152;-2.118;2022-09-17T14:38:27;0.40;;;0.22;;
27644;SDS011;15054;57.152;-2.118;2022-09-17T14:41:03;0.70;;;0.30;;
27644;SDS011;15054;57.152;-2.118;2022-09-17T14:43:48;0.70;;;0.20;;
27644;SDS011;15054;57.152;-2.118;2022-09-17T14:46:55;0.98;;;0.20;;
27644;SDS011;15054;57.152;-2.118;2022-09-17T14:49:35;1.05;;;0.20;;
27644;SDS011;15054;57.152;-2.118;2022-09-17T14:52:25;0.65;;;0.32;;
27644;SDS011;15054;57.152;-2.118;2022-09-17T14:57:39;0.73;;;0.47;;
27644;SDS011;15054;57.152;-2.118;2022-09-17T15:00:11;2.05;;;0.47;;
27644;SDS011;15054;57.152;-2.118;2022-09-17T15:02:43;1.02;;;0.32;;
27644;SDS011;15054;57.152;-2.118;2022-09-17T15:05:16;0.65;;;0.20;;
27644;SDS011;15054;57.152;-2.118;2022-09-17T15:10:33;1.58;;;0.50;;
27644;SDS011;15054;57.152;-2.118;2022-09-17T15:13:20;1.95;;;0.45;;
27644;SDS011;15054;57.152;-2.118;2022-09-17T15:15:57;1.98;;;0.30;;
27644;SDS011;15054;57.152;-2.118;2022-09-17T15:18:39;0.63;;;0.30;;
27644;SDS011;15054;57.152;-2.118;2022-09-17T15:21:14;0.45;;;0.45;;
27644;SDS011;15054;57.152;-2.118;2022-09-17T15:23:57;0.75;;;0.20;;
27644;SDS011;15054;57.152;-2.118;2022-09-17T15:26:55;0.93;;;0.20;;
27644;SDS011;15054;57.152;-2.118;2022-09-17T15:29:25;2.20;;;0.40;;
27644;SDS011;15054;57.152;-2.118;2022-09-17T15:31:56;0.22;;;0.22;;
27644;SDS011;15054;57.152;-2.118;2022-09-17T15:34:23;2.10;;;0.30;;
27644;SDS011;15054;57.152;-2.118;2022-09-17T15:39:56;0.10;;;0.10;;
27644;SDS011;15054;57.152;-2.118;2022-09-17T15:42:25;1.40;;;0.20;;
27644;SDS011;15054;57.152;-2.118;2022-09-17T15:45:14;0.73;;;0.55;;
27644;SDS011;15054;57.152;-2.118;2022-09-17T15:47:55;1.00;;;0.20;;
27644;SDS011;15054;57.152;-2.118;2022-09-17T15:50:28;0.30;;;0.30;;
